Impacts METAR Board
IDs:

KBHM - Birmingham Intl, AL, US

Updated at: 1300 UTC 21 Feb 2019
Potential Impact None Slight Moderate High
Time 21/01Z 21/02Z 21/03Z 21/04Z 21/05Z 21/06Z 21/07Z 21/08Z 21/09Z 21/10Z 21/11Z 21/12Z 21/13Z
Temp60 61 61 59 59 58 57 56 56 56 56 55 55
Dewpt59 59 59 58 58 57 56 56 56 55 55 54 53
Altim29.98 29.98 30.00 30.02 30.02 30.02 30.02 30.00 30.04 30.04 30.10 30.08 30.11
VIS10 10 10 10 9 1.25 2.5 2 2 10 3 9 5
CIG40 80 7 6 5 5 3 4 4 4 13 50 7
CoverOVCOVCOVCOVCOVCOVCOVCOVCOVCOVCOVCBKNOVC
FltCatVFRVFRIFRIFRIFRIFRLIFRLIFRLIFRLIFRMVFRVFRIFR
WX----------BRBRBR-TSRA-TSRATSRA-RABR
WDir120130090012030010033020360
WSpd6 4 0 3 0 3 3 0 3 0 6 5 4
WGst-- -- -- -- -- -- -- -- -- -- -- -- --
Raw hourly METARs
KBHM 210053Z 12006KT 10SM FEW007 FEW029 OVC040 16/15 A2998 RMK AO2 RAE2358 SLP150 P0000 T01560150
KBHM 210153Z 13004KT 10SM FEW050 BKN080 OVC095 16/15 A2998 RMK AO2 SLP148 T01610150
KBHM 210253Z 00000KT 10SM BKN007 OVC080 16/15 A3000 RMK AO2 SLP156 60000 T01610150 53007
KBHM 210353Z 09003KT 10SM OVC006 15/14 A3002 RMK AO2 SLP163 T01500144
KBHM 210453Z 00000KT 9SM OVC005 15/14 A3002 RMK AO2 SLP163 T01500144
KBHM 210553Z 12003KT 1 1/4SM BR OVC005 14/14 A3002 RMK AO2 SLP163 60000 T01440139 10161 20144 401610083 51007
KBHM 210704Z 03003KT 2 1/2SM BR OVC003 14/13 A3002 RMK AO2 LTG DSNT SW T01390133
KBHM 210757Z 00000KT 2SM BR OVC004 13/13 A3000 RMK AO2 LTG DSNT E-SW T01330133
KBHM 210853Z 01003KT 2SM -TSRA OVC004CB 13/13 A3004 RMK AO2 LTG DSNT ALQDS RAB24 TSB16 SLP168 OCNL LTG S-NW TS S-NW MOV NE P0002 60002 T01330133 53007
KBHM 210953Z 00000KT 10SM -TSRA BKN004 OVC008CB 13/13 A3004 RMK AO2 LTG DSNT ALQDS SLP171 OCNL LTG ALQDS TS ALQDS MOV NE P0012 T01330128
KBHM 211102Z 33006KT 3SM TSRA FEW007 BKN013 OVC020CB 13/13 A3010 RMK AO2 LTG DSNT W-NE OCNL LTG W-N TS W-N MOV NE P0007 T01330128
KBHM 211153Z 02005KT 9SM -RA FEW009 BKN050 BKN070 13/12 A3008 RMK AO2 TSE33 SLP184 TS MOV NE P0026 60068 70122 T01280122 10144 20128 50015
KBHM 211253Z 36004KT 5SM BR OVC007 13/12 A3011 RMK AO2 RAE24 SLP191 P0000 T01280117



Page loaded:  13:40 UTC  |   05:40 AM Pacific  |   06:40 AM Mountain  |   07:40 AM Central  |   08:40 AM Eastern

 

ADVISORIES

FORECASTS

FORECASTS

OBSERVATIONS

USER TOOLS

ABOUT US